Time;durP1;ratioP1;P1;durP2;ratioP2;P2;SDS_P1;SDS_P2;PMS_P1;PMS_P2;Temp;Humidity;BMP_temperature;BMP_pressure;BME280_temperature;BME280_humidity;BME280_pressure;Samples;Min_cycle;Max_cycle;Signal;HPM_P1;HPM_P2
2022/01/11 00:02:26;;;;;;;108.57;14.87;;;-0.20;99.90;;;;;;5120538;27;20043;-87
2022/01/11 00:04:51;;;;;;;99.35;13.23;;;0.90;99.90;;;;;;5120670;27;20061;-88
2022/01/11 00:07:19;;;;;;;58.17;12.87;;;0.80;99.90;;;;;;5116321;27;20405;-88
2022/01/11 00:09:45;;;;;;;70.15;12.77;;;1.10;99.90;;;;;;5119038;27;20042;-89
2022/01/11 00:12:14;;;;;;;57.15;11.07;;;0.80;99.90;;;;;;5119714;27;20420;-88
2022/01/11 00:14:40;;;;;;;27.77;10.55;;;0.80;99.90;;;;;;5137883;27;20396;-87
2022/01/11 00:17:06;;;;;;;80.60;13.67;;;0.60;99.90;;;;;;5119321;27;21905;-87
2022/01/11 00:19:33;;;;;;;31.85;11.65;;;-0.40;99.90;;;;;;5119651;27;20046;-88
2022/01/11 00:22:01;;;;;;;50.97;11.25;;;-0.30;99.90;;;;;;5136479;27;20112;-88
2022/01/11 00:24:28;;;;;;;39.17;10.25;;;0.10;99.90;;;;;;5103424;27;20049;-88
2022/01/11 00:27:02;;;;;;;44.67;11.43;;;0.90;99.90;;;;;;5119108;27;20099;-87
2022/01/11 00:29:29;;;;;;;20.17;10.90;;;-0.40;99.90;;;;;;5133984;27;20039;-88
2022/01/11 00:32:00;;;;;;;43.35;11.38;;;0.60;99.90;;;;;;5112387;27;20081;-88
2022/01/11 00:34:40;;;;;;;55.85;11.82;;;0.40;99.90;;;;;;5120026;27;20504;-87
2022/01/11 00:37:07;;;;;;;26.63;13.07;;;0.20;99.90;;;;;;5119414;27;20121;-87
2022/01/11 00:39:33;;;;;;;14.32;8.90;;;-0.30;99.90;;;;;;5119515;27;20121;-87
2022/01/11 00:41:59;;;;;;;24.60;9.50;;;-0.70;99.90;;;;;;5102464;27;20106;-87
2022/01/11 00:44:25;;;;;;;41.47;13.35;;;-1.50;99.90;;;;;;5119377;27;20031;-88
2022/01/11 00:46:51;;;;;;;38.70;11.80;;;0.90;99.90;;;;;;5119116;27;20117;-89
2022/01/11 00:49:16;;;;;;;33.08;9.45;;;0.40;99.90;;;;;;5110202;27;20042;-88
2022/01/11 00:51:43;;;;;;;41.78;13.70;;;-0.50;99.90;;;;;;5084346;27;20080;-88
2022/01/11 00:54:09;;;;;;;40.40;13.50;;;0.60;99.90;;;;;;5117728;27;20799;-88
2022/01/11 00:56:35;;;;;;;23.85;11.45;;;-0.40;99.90;;;;;;5101585;27;20046;-88
2022/01/11 00:59:00;;;;;;;36.53;10.73;;;-0.40;99.90;;;;;;5077073;27;20043;-88
2022/01/11 01:01:27;;;;;;;35.47;10.27;;;1.00;99.90;;;;;;5098702;27;20126;-87
2022/01/11 01:03:54;;;;;;;22.88;9.70;;;-0.40;99.90;;;;;;5095964;27;20054;-89
2022/01/11 01:06:23;;;;;;;;;;;1.00;99.90;;;;;;5136246;27;20511;-87
2022/01/11 01:08:48;;;;;;;16.42;9.25;;;0.70;99.90;;;;;;5116583;27;19919;-87
2022/01/11 01:11:14;;;;;;;28.63;11.00;;;0.70;99.90;;;;;;5117828;27;20515;-88
2022/01/11 01:13:40;;;;;;;42.13;12.83;;;-0.70;99.90;;;;;;5118617;27;20092;-87
2022/01/11 01:16:08;;;;;;;59.73;14.23;;;0.90;99.90;;;;;;5118262;27;20034;-88
2022/01/11 01:18:36;;;;;;;53.30;11.95;;;-0.40;99.90;;;;;;5119478;27;20484;-88
2022/01/11 01:21:02;;;;;;;34.40;12.23;;;0.80;99.90;;;;;;5117460;27;20074;-87
2022/01/11 01:23:28;;;;;;;74.65;17.20;;;0.60;99.90;;;;;;5111730;27;20105;-88
2022/01/11 01:25:54;;;;;;;45.13;12.47;;;-1.60;99.90;;;;;;5087873;27;20050;-89
2022/01/11 01:28:26;;;;;;;34.50;11.63;;;-0.60;99.90;;;;;;5118061;27;20046;-87
2022/01/11 01:30:53;;;;;;;27.17;10.38;;;1.10;99.90;;;;;;5135084;27;20295;-88
2022/01/11 01:33:20;;;;;;;25.08;11.25;;;-0.60;99.90;;;;;;5132343;27;20389;-88
2022/01/11 01:35:52;;;;;;;62.72;15.00;;;-0.30;99.90;;;;;;5118152;27;20047;-88
2022/01/11 01:38:22;;;;;;;31.98;13.32;;;0.40;99.90;;;;;;5112522;27;20124;-88
2022/01/11 01:40:54;;;;;;;51.58;14.45;;;-0.50;99.90;;;;;;5135463;27;20047;-87
2022/01/11 01:43:26;;;;;;;53.08;14.50;;;0.60;99.90;;;;;;5117315;27;20042;-88
2022/01/11 01:45:52;;;;;;;75.18;17.10;;;0.50;99.90;;;;;;5101551;27;20043;-88
2022/01/11 01:48:19;;;;;;;33.65;13.27;;;0.40;99.90;;;;;;5117175;27;20645;-87
2022/01/11 01:50:45;;;;;;;51.42;13.63;;;-0.50;99.90;;;;;;5117907;27;20038;-88
2022/01/11 01:53:13;;;;;;;80.80;14.90;;;0.80;99.90;;;;;;5117380;27;20499;-88
2022/01/11 01:55:43;;;;;;;88.05;16.67;;;-0.20;99.90;;;;;;5116914;27;20485;-87
2022/01/11 01:58:10;;;;;;;61.47;17.73;;;0.90;99.90;;;;;;5099143;27;20519;-88
2022/01/11 02:00:46;;;;;;;99.43;20.48;;;0.60;99.90;;;;;;5099876;27;20049;-88
2022/01/11 02:03:15;;;;;;;162.52;20.52;;;-0.50;99.90;;;;;;5115076;27;20046;-88
2022/01/11 02:05:44;;;;;;;79.65;16.38;;;0.30;99.90;;;;;;5117985;27;20035;-87
2022/01/11 02:08:14;;;;;;;114.90;18.50;;;0.90;99.90;;;;;;5117264;27;20045;-88
2022/01/11 02:10:40;;;;;;;65.90;16.98;;;0.80;99.90;;;;;;5115284;27;20041;-87
2022/01/11 02:13:08;;;;;;;78.20;14.47;;;0.10;99.90;;;;;;5100359;27;20047;-88
2022/01/11 02:15:34;;;;;;;87.78;17.40;;;0.80;99.90;;;;;;5105638;28;20040;-88
2022/01/11 02:18:27;;;;;;;39.20;14.10;;;0.70;99.90;;;;;;5101982;27;20036;-88
2022/01/11 02:20:57;;;;;;;88.00;16.25;;;-0.30;99.90;;;;;;5109255;27;20097;-88
2022/01/11 02:23:23;;;;;;;113.20;20.90;;;-0.40;99.90;;;;;;5104355;27;20062;-88
2022/01/11 02:25:55;;;;;;;85.43;16.25;;;-0.40;99.90;;;;;;5099797;27;20035;-88
2022/01/11 02:28:24;;;;;;;55.35;13.85;;;0.30;99.90;;;;;;5100631;27;20050;-88
2022/01/11 02:30:51;;;;;;;114.88;17.92;;;-1.50;99.90;;;;;;5095194;28;20089;-88
2022/01/11 02:33:35;;;;;;;43.38;13.13;;;-0.50;99.90;;;;;;5112135;27;20039;-88
2022/01/11 02:36:07;;;;;;;36.20;12.77;;;-0.60;99.90;;;;;;5105128;27;20078;-88
2022/01/11 02:38:33;;;;;;;54.17;15.60;;;-0.50;99.90;;;;;;5100213;28;20051;-88
2022/01/11 02:41:02;;;;;;;83.68;17.17;;;-1.00;99.90;;;;;;5083874;27;20543;-87
2022/01/11 02:43:28;;;;;;;44.10;16.30;;;1.00;99.90;;;;;;5118625;27;20043;-88
2022/01/11 02:45:54;;;;;;;65.13;15.30;;;0.70;99.90;;;;;;5094538;27;20046;-88
2022/01/11 02:48:23;;;;;;;68.95;16.58;;;0.30;99.90;;;;;;5095953;28;20043;-88
2022/01/11 02:50:49;;;;;;;56.10;13.60;;;1.10;99.90;;;;;;5099543;28;20105;-87
2022/01/11 02:53:15;;;;;;;37.53;13.67;;;-1.10;99.90;;;;;;5064309;28;20071;-88
2022/01/11 02:55:43;;;;;;;45.07;15.20;;;-0.10;99.90;;;;;;5116032;27;20085;-88
2022/01/11 02:58:10;;;;;;;37.90;12.43;;;-0.50;99.90;;;;;;5092309;27;20038;-88
2022/01/11 03:00:38;;;;;;;40.53;13.93;;;0.70;99.90;;;;;;5100067;27;20047;-88
2022/01/11 03:03:18;;;;;;;51.45;16.27;;;-0.40;99.90;;;;;;5101632;27;20091;-88
2022/01/11 03:05:48;;;;;;;41.35;15.40;;;0.90;99.90;;;;;;5094532;28;20074;-87
2022/01/11 03:08:15;;;;;;;49.53;13.50;;;1.10;99.90;;;;;;5095881;28;20435;-88
2022/01/11 03:10:40;;;;;;;;;;;0.60;99.90;;;;;;5102716;28;20104;-88
2022/01/11 03:13:08;;;;;;;30.30;12.75;;;-0.30;99.90;;;;;;5097468;28;19923;-87
2022/01/11 03:15:34;;;;;;;80.28;16.00;;;-0.40;99.90;;;;;;5113771;28;20571;-88
2022/01/11 03:18:08;;;;;;;28.80;14.20;;;0.10;99.90;;;;;;5118672;28;20035;-88
2022/01/11 03:20:36;;;;;;;32.45;15.05;;;0.80;99.90;;;;;;5096441;28;20111;-87
2022/01/11 03:23:03;;;;;;;43.53;14.68;;;-0.20;99.90;;;;;;5101935;28;20043;-87
2022/01/11 03:25:29;;;;;;;;;;;-0.90;99.90;;;;;;5096518;27;20043;-88
2022/01/11 03:27:55;;;;;;;31.42;13.60;;;0.20;99.90;;;;;;5102472;27;20434;-87
2022/01/11 03:30:21;;;;;;;35.73;12.70;;;-0.60;99.90;;;;;;5095622;28;20043;-88
2022/01/11 03:32:47;;;;;;;41.10;16.38;;;0.70;99.90;;;;;;5111001;28;20075;-88
2022/01/11 03:35:13;;;;;;;42.35;13.70;;;-0.30;99.90;;;;;;5106925;27;20128;-88
2022/01/11 03:37:41;;;;;;;32.72;12.48;;;0.90;99.90;;;;;;5119645;27;20098;-88
2022/01/11 03:40:10;;;;;;;48.63;14.93;;;0.90;99.90;;;;;;5122028;27;20082;-88
2022/01/11 03:42:36;;;;;;;32.05;15.15;;;-0.50;99.90;;;;;;5118620;27;20074;-88
2022/01/11 03:45:05;;;;;;;44.55;13.70;;;0.90;99.90;;;;;;5124753;27;20500;-87
2022/01/11 03:47:30;;;;;;;27.08;14.10;;;-0.60;99.90;;;;;;5087383;27;20063;-88
2022/01/11 03:49:56;;;;;;;35.03;13.20;;;-0.40;99.90;;;;;;5084296;27;20036;-88
2022/01/11 03:52:22;;;;;;;46.13;13.35;;;0.60;99.90;;;;;;5106329;28;20043;-88
2022/01/11 03:57:30;;;;;;;54.75;13.63;;;1.00;99.90;;;;;;5101132;28;20124;-88
2022/01/11 03:59:58;;;;;;;32.72;11.88;;;-0.10;99.90;;;;;;5107098;27;20273;-88
2022/01/11 04:02:25;;;;;;;45.30;13.77;;;-0.50;99.90;;;;;;5104271;27;20101;-88
2022/01/11 04:04:53;;;;;;;31.17;13.02;;;0.70;99.90;;;;;;5120943;27;20520;-88
2022/01/11 04:07:25;;;;;;;31.23;13.25;;;0.30;99.90;;;;;;5103916;28;20043;-89
2022/01/11 04:09:53;;;;;;;22.45;12.10;;;-0.60;99.90;;;;;;5099465;28;20562;-88
2022/01/11 04:12:18;;;;;;;30.80;13.02;;;1.00;99.90;;;;;;5103484;27;20055;-88
2022/01/11 04:14:44;;;;;;;39.43;13.13;;;0.90;99.90;;;;;;5107320;27;20039;-88
2022/01/11 04:17:13;;;;;;;19.43;12.37;;;0.90;99.90;;;;;;5120664;27;20035;-88
2022/01/11 04:19:39;;;;;;;23.05;11.88;;;-0.40;99.90;;;;;;5107265;27;20469;-88
2022/01/11 04:22:05;;;;;;;23.50;13.98;;;0.90;99.90;;;;;;5083528;28;20123;-87
2022/01/11 04:24:31;;;;;;;27.73;14.33;;;-0.50;99.90;;;;;;5120113;27;20054;-88
2022/01/11 04:27:00;;;;;;;23.80;13.03;;;0.70;99.90;;;;;;5135896;27;20286;-87
2022/01/11 04:29:26;;;;;;;23.13;11.82;;;-0.50;99.90;;;;;;5083343;27;20784;-87
2022/01/11 04:31:52;;;;;;;23.90;11.57;;;0.90;99.90;;;;;;5118461;27;20055;-88
2022/01/11 04:34:20;;;;;;;16.43;12.60;;;0.80;99.90;;;;;;5107284;27;20436;-87
2022/01/11 04:36:46;;;;;;;30.25;14.38;;;-0.10;99.90;;;;;;5099754;27;20058;-88
2022/01/11 04:39:13;;;;;;;29.73;15.57;;;0.80;99.90;;;;;;5080777;28;20151;-87
2022/01/11 04:41:39;;;;;;;38.75;16.75;;;0.80;99.90;;;;;;5115832;27;20051;-88
2022/01/11 04:44:07;;;;;;;33.75;13.40;;;0.60;99.90;;;;;;5098136;27;20378;-88
2022/01/11 04:46:34;;;;;;;26.17;13.95;;;-0.40;99.90;;;;;;5100203;27;20051;-87
2022/01/11 04:49:00;;;;;;;31.63;14.25;;;1.10;99.90;;;;;;5124395;27;20481;-89
2022/01/11 04:51:27;;;;;;;30.40;16.73;;;-0.40;99.90;;;;;;5101318;28;20039;-89
2022/01/11 04:53:54;;;;;;;43.13;16.42;;;0.90;99.90;;;;;;5098391;27;20564;-87
2022/01/11 04:56:20;;;;;;;26.77;13.00;;;0.70;99.90;;;;;;5115010;27;20085;-88
2022/01/11 04:58:46;;;;;;;33.75;15.73;;;0.80;99.90;;;;;;5117725;27;20043;-87
2022/01/11 05:01:12;;;;;;;24.63;15.07;;;-0.40;99.90;;;;;;5095422;27;20117;-88
2022/01/11 05:03:38;;;;;;;29.90;13.68;;;-0.50;99.90;;;;;;5100675;27;20055;-88
2022/01/11 05:06:06;;;;;;;28.47;16.77;;;-0.40;99.90;;;;;;5085479;27;20072;-87
2022/01/11 05:08:32;;;;;;;27.45;15.73;;;1.00;99.90;;;;;;5102190;28;20051;-88
2022/01/11 05:10:58;;;;;;;36.10;14.63;;;-0.20;99.90;;;;;;5097551;27;20039;-88
2022/01/11 05:13:24;;;;;;;24.23;12.70;;;0.60;99.90;;;;;;5139166;27;20052;-88
2022/01/11 05:15:50;;;;;;;35.03;15.17;;;0.50;99.90;;;;;;5104342;27;20127;-87
2022/01/11 05:18:17;;;;;;;37.90;13.83;;;0.80;99.90;;;;;;5102580;27;20081;-88
2022/01/11 05:20:46;;;;;;;26.35;15.32;;;-0.50;99.90;;;;;;5115968;27;20036;-88
2022/01/11 05:23:14;;;;;;;23.83;11.77;;;-0.60;99.90;;;;;;5096377;28;20047;-87
2022/01/11 05:25:41;;;;;;;35.88;15.43;;;-0.30;99.90;;;;;;5097836;27;20418;-88
2022/01/11 05:28:06;;;;;;;27.17;13.30;;;-0.50;99.90;;;;;;5122884;27;20045;-88
2022/01/11 05:30:32;;;;;;;23.17;14.15;;;0.80;99.90;;;;;;5117044;27;20039;-88
2022/01/11 05:32:58;;;;;;;23.17;13.43;;;-0.50;99.90;;;;;;5090542;27;20047;-88
2022/01/11 05:35:25;;;;;;;23.90;14.33;;;-0.50;99.90;;;;;;5100379;28;20051;-87
2022/01/11 05:37:52;;;;;;;22.13;14.52;;;0.70;99.90;;;;;;5097890;27;20042;-87
2022/01/11 05:40:19;;;;;;;27.45;13.20;;;0.60;99.90;;;;;;5096116;28;20043;-87
2022/01/11 05:42:45;;;;;;;20.58;12.45;;;-0.40;99.90;;;;;;5098530;27;20531;-88
2022/01/11 05:45:13;;;;;;;34.30;17.20;;;1.10;99.90;;;;;;5115598;27;20138;-88
2022/01/11 05:47:39;;;;;;;28.13;15.38;;;0.80;99.90;;;;;;5099014;27;20040;-88
2022/01/11 05:50:10;;;;;;;34.63;16.80;;;0.60;99.90;;;;;;5099662;27;20442;-87
2022/01/11 05:52:38;;;;;;;24.73;16.13;;;-0.30;99.90;;;;;;5100189;27;20405;-90
2022/01/11 05:55:07;;;;;;;25.67;15.15;;;0.80;99.90;;;;;;5123783;27;20039;-87
2022/01/11 05:57:36;;;;;;;26.50;14.43;;;-0.50;99.90;;;;;;5104536;27;20047;-87
2022/01/11 06:00:06;;;;;;;26.13;16.35;;;1.20;99.90;;;;;;5101303;27;20050;-87
2022/01/11 06:02:32;;;;;;;30.38;15.85;;;-0.40;99.90;;;;;;5101270;28;20451;-87
2022/01/11 06:04:58;;;;;;;32.20;17.13;;;0.80;99.90;;;;;;5085816;27;20065;-88
2022/01/11 06:07:23;;;;;;;31.10;16.03;;;0.40;99.90;;;;;;5092500;27;20035;-87
2022/01/11 06:09:49;;;;;;;28.70;15.68;;;1.00;99.90;;;;;;5102278;27;20039;-87
2022/01/11 06:12:15;;;;;;;30.90;17.20;;;0.70;99.90;;;;;;5102483;27;20134;-87
2022/01/11 06:14:41;;;;;;;26.27;14.80;;;-0.30;99.90;;;;;;5071039;27;20031;-88
2022/01/11 06:17:09;;;;;;;31.37;15.43;;;1.00;99.90;;;;;;5131490;27;20050;-87
2022/01/11 06:19:35;;;;;;;23.50;14.10;;;1.20;99.90;;;;;;5131501;27;20072;-87
2022/01/11 06:22:03;;;;;;;31.20;16.57;;;-0.80;99.90;;;;;;5130744;27;20039;-87
2022/01/11 06:24:32;;;;;;;31.42;16.75;;;1.00;99.90;;;;;;5124583;27;20050;-87
2022/01/11 06:26:57;;;;;;;39.20;16.98;;;-0.40;99.90;;;;;;5111727;27;20401;-88
2022/01/11 06:29:23;;;;;;;34.73;15.90;;;0.60;99.90;;;;;;5114451;27;20096;-87
2022/01/11 06:31:49;;;;;;;28.25;15.73;;;-0.40;99.90;;;;;;5113149;27;20092;-87
2022/01/11 06:34:15;;;;;;;21.30;13.97;;;0.10;99.90;;;;;;5131092;27;20031;-87
2022/01/11 06:36:43;;;;;;;32.67;16.17;;;0.90;99.90;;;;;;5124505;27;20035;-87
2022/01/11 06:39:09;;;;;;;25.77;13.55;;;0.70;99.90;;;;;;5087606;27;20039;-88
2022/01/11 06:41:35;;;;;;;31.77;16.13;;;-0.40;99.90;;;;;;5113572;27;20122;-87
2022/01/11 06:44:03;;;;;;;33.35;15.40;;;0.60;99.90;;;;;;5113076;27;20043;-87
2022/01/11 06:46:29;;;;;;;37.28;15.27;;;0.50;99.90;;;;;;5131292;27;20126;-87
2022/01/11 06:48:57;;;;;;;31.43;15.70;;;0.70;99.90;;;;;;5113511;27;20126;-87
2022/01/11 06:51:23;;;;;;;31.70;15.68;;;0.90;99.90;;;;;;5113467;27;20070;-87
2022/01/11 06:53:48;;;;;;;37.43;16.03;;;0.00;99.90;;;;;;5112980;27;20078;-88
2022/01/11 06:56:17;;;;;;;32.77;16.40;;;-0.40;99.90;;;;;;5105450;27;20066;-87
2022/01/11 06:58:43;;;;;;;24.85;14.32;;;-0.30;99.90;;;;;;5113599;27;20519;-87
2022/01/11 07:01:08;;;;;;;32.10;17.73;;;-0.50;99.90;;;;;;5096240;27;20039;-87
2022/01/11 07:03:34;;;;;;;29.30;16.10;;;0.30;99.90;;;;;;5079678;28;20095;-88
2022/01/11 07:06:00;;;;;;;35.83;18.53;;;-0.30;99.90;;;;;;5098684;28;20040;-88
2022/01/11 07:08:26;;;;;;;30.88;17.50;;;-0.50;99.90;;;;;;5113978;28;20418;-91
2022/01/11 07:10:54;;;;;;;33.67;17.65;;;-0.20;99.90;;;;;;5095267;28;20046;-86
2022/01/11 07:13:22;;;;;;;27.55;15.93;;;1.00;99.90;;;;;;5108788;28;20043;-86
2022/01/11 07:15:47;;;;;;;43.25;17.95;;;-0.50;99.90;;;;;;5096715;28;20052;-89
2022/01/11 07:18:13;;;;;;;29.65;17.27;;;-0.50;99.90;;;;;;5088985;28;20046;-87
2022/01/11 07:20:42;;;;;;;46.30;20.97;;;0.70;99.90;;;;;;5114839;28;20040;-87
2022/01/11 07:23:16;;;;;;;26.95;16.02;;;-0.60;99.90;;;;;;5081529;28;20556;-92
2022/01/11 07:25:42;;;;;;;26.08;16.60;;;-0.50;99.90;;;;;;5093874;28;20036;-90
2022/01/11 07:28:08;;;;;;;33.73;17.00;;;1.10;99.90;;;;;;5102568;28;20110;-93
2022/01/11 07:30:33;;;;;;;36.92;17.40;;;-0.60;99.90;;;;;;5097643;28;20481;-87
2022/01/11 07:33:02;;;;;;;28.67;17.60;;;0.60;99.90;;;;;;5079231;28;20485;-92
2022/01/11 07:35:28;;;;;;;37.97;17.10;;;0.40;99.90;;;;;;5118262;28;20055;-87
2022/01/11 07:37:57;;;;;;;27.47;16.03;;;0.80;99.90;;;;;;5103225;28;20039;-94
2022/01/11 07:40:25;;;;;;;27.13;17.90;;;-0.90;99.90;;;;;;5102850;28;20039;-95
2022/01/11 07:42:54;;;;;;;29.73;15.90;;;-1.30;99.90;;;;;;5114610;28;20493;-94
2022/01/11 07:45:26;;;;;;;29.13;15.30;;;1.00;99.90;;;;;;5121342;28;20039;-90
2022/01/11 07:47:52;;;;;;;23.55;14.57;;;0.30;99.90;;;;;;5107193;28;20043;-92
2022/01/11 07:50:38;;;;;;;37.00;17.43;;;1.00;99.90;;;;;;5103480;28;20401;-94
2022/01/11 07:53:05;;;;;;;28.67;15.50;;;-0.50;99.90;;;;;;5111362;28;20047;-91
2022/01/11 07:55:35;;;;;;;32.47;15.50;;;1.10;99.90;;;;;;5100190;28;20054;-89
2022/01/11 07:58:02;;;;;;;25.40;14.55;;;-0.30;99.90;;;;;;5097752;28;20047;-89
2022/01/11 08:00:48;;;;;;;;;;;-0.40;99.90;;;;;;5101864;28;20079;-88
2022/01/11 08:03:14;;;;;;;23.63;11.48;;;0.00;99.90;;;;;;5093945;28;19923;-88
2022/01/11 08:05:42;;;;;;;20.97;12.40;;;-0.30;99.90;;;;;;5094102;28;20504;-89
2022/01/11 08:12:01;;;;;;;21.70;12.13;;;-0.30;99.90;;;;;;5064324;28;20047;-90
2022/01/11 08:14:29;;;;;;;24.43;12.10;;;-0.30;99.90;;;;;;5102134;28;20047;-90
2022/01/11 08:16:57;;;;;;;28.48;15.30;;;0.50;99.90;;;;;;5095144;28;20040;-89
2022/01/11 08:19:27;;;;;;;24.23;13.88;;;0.70;99.90;;;;;;5079340;28;20047;-89
2022/01/11 08:21:56;;;;;;;31.27;13.73;;;1.20;99.90;;;;;;5108282;28;20497;-92
2022/01/11 08:24:23;;;;;;;26.40;14.57;;;-0.10;99.90;;;;;;5092920;28;20051;-90
2022/01/11 08:26:53;;;;;;;16.90;11.98;;;1.00;99.90;;;;;;5091951;28;20039;-90
2022/01/11 08:29:23;;;;;;;23.38;14.38;;;0.10;99.90;;;;;;5110583;28;20617;-93
2022/01/11 08:31:49;;;;;;;26.83;13.35;;;0.60;99.90;;;;;;5097252;28;20051;-90
2022/01/11 08:34:16;;;;;;;16.55;11.98;;;0.70;99.90;;;;;;5079486;28;20039;-91
2022/01/11 08:36:44;;;;;;;21.40;11.43;;;0.00;99.90;;;;;;5090461;28;20051;-90
2022/01/11 08:39:12;;;;;;;25.77;14.30;;;2.40;99.90;;;;;;5096057;28;20065;-88
2022/01/11 08:41:41;;;;;;;17.58;9.70;;;2.80;99.90;;;;;;5096645;28;20051;-88
2022/01/11 08:44:09;;;;;;;22.25;11.85;;;2.90;99.90;;;;;;5079093;28;20118;-91
2022/01/11 08:46:36;;;;;;;24.15;12.20;;;2.80;99.90;;;;;;5079472;28;20075;-90
2022/01/11 08:49:12;;;;;;;23.50;11.10;;;0.80;99.90;;;;;;5091562;28;20048;-91
2022/01/11 08:51:39;;;;;;;16.33;9.52;;;3.30;99.90;;;;;;5085958;28;20486;-92
2022/01/11 08:54:05;;;;;;;16.77;9.57;;;1.70;99.90;;;;;;5095966;28;20047;-91
2022/01/11 08:56:32;;;;;;;17.50;10.23;;;2.70;99.90;;;;;;5096323;28;20044;-91
2022/01/11 08:58:58;;;;;;;20.38;10.85;;;1.30;99.90;;;;;;5079046;28;20047;-91
2022/01/11 09:01:26;;;;;;;15.55;8.88;;;1.00;99.90;;;;;;5095097;28;20042;-92
2022/01/11 09:03:52;;;;;;;12.68;8.52;;;0.90;99.90;;;;;;5079412;28;20051;-91
2022/01/11 09:06:21;;;;;;;16.53;10.27;;;1.10;99.90;;;;;;5070163;28;20043;-91
2022/01/11 09:08:47;;;;;;;17.33;9.65;;;2.00;99.90;;;;;;5092752;28;20435;-91
2022/01/11 09:11:13;;;;;;;19.87;10.10;;;2.20;99.90;;;;;;5077886;28;20120;-91
2022/01/11 09:13:39;;;;;;;23.63;9.80;;;2.00;99.90;;;;;;5114142;27;20047;-91
2022/01/11 09:16:08;;;;;;;18.75;8.88;;;0.70;99.90;;;;;;5134025;27;20401;-91
2022/01/11 09:18:34;;;;;;;13.57;9.55;;;0.80;99.90;;;;;;5116109;27;20079;-92
2022/01/11 09:21:04;;;;;;;14.88;9.02;;;1.70;99.90;;;;;;5116616;27;20047;-91
2022/01/11 09:23:32;;;;;;;17.48;7.07;;;0.60;99.90;;;;;;5132873;27;20458;-92
2022/01/11 09:25:58;;;;;;;11.75;6.97;;;0.70;99.90;;;;;;5113156;27;20038;-92
2022/01/11 09:28:24;;;;;;;17.45;8.68;;;1.90;99.90;;;;;;5098358;27;20050;-91
2022/01/11 09:30:51;;;;;;;14.80;8.57;;;0.30;99.90;;;;;;5113148;27;20073;-94
2022/01/11 09:33:17;;;;;;;20.25;7.32;;;0.50;99.90;;;;;;5115680;27;20091;-92
2022/01/11 09:35:44;;;;;;;18.67;7.93;;;0.70;99.90;;;;;;5118386;27;20061;-91
2022/01/11 09:38:10;;;;;;;19.20;9.25;;;0.20;99.90;;;;;;5117111;27;20481;-88
2022/01/11 09:40:40;;;;;;;13.75;7.50;;;1.80;99.90;;;;;;5117478;27;20044;-92
2022/01/11 09:43:19;;;;;;;13.70;8.43;;;0.50;99.90;;;;;;5127005;27;20043;-93
2022/01/11 09:45:48;;;;;;;12.90;7.03;;;0.40;99.90;;;;;;5109775;27;20055;-91
2022/01/11 09:48:14;;;;;;;10.13;6.32;;;0.30;99.90;;;;;;5133310;27;20043;-90
2022/01/11 09:50:42;;;;;;;13.02;7.18;;;1.50;99.90;;;;;;5115882;27;20047;-93
2022/01/11 09:53:08;;;;;;;17.30;8.80;;;1.90;99.90;;;;;;5115515;27;20036;-91
2022/01/11 09:55:34;;;;;;;11.13;7.13;;;1.20;99.90;;;;;;5114981;27;20080;-91
2022/01/11 09:58:03;;;;;;;18.98;7.32;;;1.80;99.90;;;;;;5114880;27;20141;-92
2022/01/11 10:00:30;;;;;;;10.40;7.78;;;0.80;99.90;;;;;;5113297;27;20398;-91
2022/01/11 10:02:55;;;;;;;13.90;7.83;;;1.70;99.90;;;;;;5133487;27;20043;-91
2022/01/11 10:05:25;;;;;;;13.45;7.32;;;1.90;99.90;;;;;;5113720;27;20384;-92
2022/01/11 10:07:53;;;;;;;16.15;7.57;;;1.80;99.90;;;;;;5126318;27;20042;-92
2022/01/11 10:10:22;;;;;;;14.02;8.80;;;1.60;99.90;;;;;;5133216;27;20046;-91
2022/01/11 10:12:52;;;;;;;21.15;8.02;;;2.10;99.90;;;;;;5116498;27;20054;-91
2022/01/11 10:15:37;;;;;;;17.27;7.80;;;1.90;99.90;;;;;;5124579;27;20047;-92
2022/01/11 10:18:03;;;;;;;18.88;9.27;;;0.20;99.90;;;;;;5131778;27;20039;-91
2022/01/11 10:20:29;;;;;;;13.15;7.68;;;0.70;99.90;;;;;;5113966;27;20134;-90
2022/01/11 10:23:02;;;;;;;14.77;7.70;;;0.90;99.90;;;;;;5113438;27;20122;-90
2022/01/11 10:25:31;;;;;;;14.85;8.63;;;0.70;99.90;;;;;;5122089;27;20069;-90
2022/01/11 10:27:58;;;;;;;17.27;8.52;;;2.30;99.90;;;;;;5108366;27;20059;-91
2022/01/11 10:30:25;;;;;;;16.38;8.85;;;2.20;99.90;;;;;;5127385;27;20527;-91
2022/01/11 10:32:54;;;;;;;21.60;8.32;;;2.10;99.90;;;;;;5108465;27;20127;-91
2022/01/11 10:35:29;;;;;;;17.42;8.30;;;1.40;99.90;;;;;;5104505;27;20035;-90
2022/01/11 10:37:59;;;;;;;11.05;8.25;;;1.50;99.90;;;;;;5104664;27;20043;-90
2022/01/11 10:40:34;;;;;;;10.85;7.30;;;3.00;99.90;;;;;;5118090;27;20050;-90
2022/01/11 10:43:10;;;;;;;15.15;8.70;;;1.90;99.90;;;;;;5113711;27;20049;-91
2022/01/11 10:45:47;;;;;;;17.00;9.10;;;2.10;99.90;;;;;;5112279;27;20090;-90
2022/01/11 10:48:17;;;;;;;15.48;8.88;;;2.30;99.90;;;;;;5104241;27;20051;-90
2022/01/11 10:50:47;;;;;;;13.23;7.97;;;2.50;99.90;;;;;;5096087;27;20085;-91
2022/01/11 10:53:19;;;;;;;10.43;7.10;;;3.10;99.90;;;;;;5135835;27;20047;-91
2022/01/11 10:55:52;;;;;;;11.40;8.48;;;2.50;99.90;;;;;;5112043;27;20441;-92
2022/01/11 10:58:19;;;;;;;16.00;8.07;;;3.80;99.90;;;;;;5128309;27;20039;-92
2022/01/11 11:00:53;;;;;;;16.48;10.18;;;3.80;99.90;;;;;;5111173;28;20112;-90
2022/01/11 11:03:21;;;;;;;14.20;8.63;;;2.90;99.90;;;;;;5114834;27;20056;-92
2022/01/11 11:05:51;;;;;;;19.60;8.40;;;4.40;99.90;;;;;;5114274;28;20043;-90
2022/01/11 11:08:26;;;;;;;13.85;8.07;;;4.00;99.90;;;;;;5114310;27;20047;-92
2022/01/11 11:10:55;;;;;;;16.55;8.23;;;3.00;99.90;;;;;;5130908;27;20054;-91
2022/01/11 11:13:28;;;;;;;13.35;8.07;;;4.10;99.90;;;;;;5114187;27;20058;-91
2022/01/11 11:16:10;;;;;;;14.10;8.30;;;2.70;99.90;;;;;;5130236;27;20446;-93
2022/01/11 11:18:42;;;;;;;15.30;8.02;;;3.40;99.90;;;;;;5129887;28;20070;-90
2022/01/11 11:21:16;;;;;;;14.48;8.43;;;3.40;99.90;;;;;;5114303;28;20027;-91
2022/01/11 11:23:42;;;;;;;16.55;7.32;;;3.60;99.90;;;;;;5112811;28;20388;-91
2022/01/11 11:26:10;;;;;;;11.65;7.85;;;5.20;99.90;;;;;;5114269;28;20039;-91
2022/01/11 11:28:38;;;;;;;15.38;8.15;;;4.50;99.90;;;;;;5130748;28;20122;-91
2022/01/11 11:31:04;;;;;;;12.50;8.30;;;4.30;99.90;;;;;;5113851;28;20088;-91
2022/01/11 11:33:30;;;;;;;12.77;7.75;;;4.40;99.90;;;;;;5130739;28;20058;-90
2022/01/11 11:35:57;;;;;;;11.68;7.43;;;5.50;99.90;;;;;;5131123;28;20043;-92
2022/01/11 11:38:31;;;;;;;14.30;7.72;;;5.40;99.90;;;;;;5113811;28;20027;-91
2022/01/11 11:40:59;;;;;;;17.15;6.90;;;4.10;99.90;;;;;;5131054;28;20397;-91
2022/01/11 11:43:25;;;;;;;9.43;6.93;;;3.80;99.90;;;;;;5113622;28;20118;-90
2022/01/11 11:45:51;;;;;;;11.52;7.25;;;3.80;99.90;;;;;;5130606;28;20042;-91
2022/01/11 11:48:20;;;;;;;10.60;6.28;;;5.00;99.90;;;;;;5100940;27;20035;-92
2022/01/11 11:50:58;;;;;;;12.43;6.78;;;3.70;99.90;;;;;;5117771;27;20260;-90
2022/01/11 11:53:33;;;;;;;15.55;7.35;;;5.10;99.90;;;;;;5133431;27;20090;-91
2022/01/11 11:56:25;;;;;;;15.05;7.07;;;4.00;99.90;;;;;;5120226;27;20473;-95
2022/01/11 11:58:56;;;;;;;16.15;7.25;;;4.00;99.90;;;;;;5112795;27;20107;-93
2022/01/11 12:01:41;;;;;;;9.15;6.32;;;5.00;99.90;;;;;;5117650;27;20358;-91
2022/01/11 12:04:09;;;;;;;10.60;6.18;;;4.90;99.90;;;;;;5117971;27;20101;-90
2022/01/11 12:06:35;;;;;;;11.05;6.35;;;4.00;99.90;;;;;;5109694;27;20047;-90
2022/01/11 12:09:10;;;;;;;12.97;7.90;;;3.80;99.90;;;;;;5118646;27;20087;-91
2022/01/11 12:11:48;;;;;;;14.82;7.43;;;5.10;99.90;;;;;;5120288;27;20149;-91
2022/01/11 12:14:37;;;;;;;12.80;6.63;;;3.90;99.90;;;;;;5105451;27;20473;-91
2022/01/11 12:17:16;;;;;;;11.43;6.47;;;4.10;99.90;;;;;;5118835;27;20062;-91
2022/01/11 12:19:48;;;;;;;8.35;5.65;;;3.30;99.90;;;;;;5101630;27;20047;-91
2022/01/11 12:22:23;;;;;;;10.57;6.35;;;4.00;99.90;;;;;;5101767;27;20401;-90
2022/01/11 12:24:55;;;;;;;14.38;7.90;;;4.00;99.90;;;;;;5101331;27;20479;-91
2022/01/11 12:27:23;;;;;;;12.57;6.05;;;4.00;99.90;;;;;;5115547;27;20404;-91
2022/01/11 12:30:02;;;;;;;10.93;7.03;;;5.50;99.90;;;;;;5121387;27;20035;-91
2022/01/11 12:32:33;;;;;;;11.02;7.22;;;4.00;99.90;;;;;;5121010;27;20095;-90
2022/01/11 12:35:25;;;;;;;13.82;6.00;;;5.10;99.90;;;;;;5119655;27;20039;-90
2022/01/11 12:38:06;;;;;;;11.38;7.28;;;4.20;99.90;;;;;;5114826;27;20031;-92
2022/01/11 12:40:40;;;;;;;9.35;6.32;;;5.00;99.90;;;;;;5106638;27;20069;-92
2022/01/11 12:43:18;;;;;;;13.77;6.68;;;4.20;99.90;;;;;;5104159;27;20043;-92
2022/01/11 12:45:54;;;;;;;12.98;6.20;;;4.10;99.90;;;;;;5121656;27;20043;-91
2022/01/11 12:48:45;;;;;;;11.60;7.22;;;4.20;99.90;;;;;;5121985;27;20046;-92
2022/01/11 12:51:22;;;;;;;12.90;6.65;;;4.20;99.90;;;;;;5138923;27;20038;-92
2022/01/11 12:53:51;;;;;;;16.77;5.97;;;4.10;99.90;;;;;;5105847;27;20130;-92